Time;durP1;ratioP1;P1;durP2;ratioP2;P2;SDS_P1;SDS_P2;PMS_P1;PMS_P2;Temp;Humidity;BMP_temperature;BMP_pressure;BME280_temperature;BME280_humidity;BME280_pressure;Samples;Min_cycle;Max_cycle;Signal;HPM_P1;HPM_P2
2022/03/29 00:01:58;;;;;;;11.38;7.75;;;19.50;59.90;;;;;;4992327;28;20042;-77
2022/03/29 00:04:23;;;;;;;13.70;7.38;;;19.50;60.50;;;;;;4992843;28;20096;-78
2022/03/29 00:06:50;;;;;;;12.10;8.23;;;19.50;59.90;;;;;;4992922;28;20474;-78
2022/03/29 00:09:16;;;;;;;10.27;7.05;;;19.50;59.80;;;;;;4993198;28;20022;-78
2022/03/29 00:11:42;;;;;;;14.85;8.80;;;19.50;59.90;;;;;;4993142;28;20493;-77
2022/03/29 00:14:08;;;;;;;15.43;9.10;;;19.40;59.80;;;;;;4992908;28;20502;-77
2022/03/29 00:16:34;;;;;;;13.90;8.15;;;19.40;59.80;;;;;;4992029;28;20122;-78
2022/03/29 00:19:00;;;;;;;12.45;7.88;;;19.40;59.80;;;;;;4992708;28;20034;-80
2022/03/29 00:21:26;;;;;;;12.75;8.20;;;19.40;59.80;;;;;;4992424;28;20089;-80
2022/03/29 00:23:52;;;;;;;14.50;8.75;;;19.40;59.80;;;;;;4975217;28;20037;-77
2022/03/29 00:26:18;;;;;;;13.57;8.18;;;19.40;59.80;;;;;;4992447;28;20027;-78
2022/03/29 00:28:44;;;;;;;12.02;8.27;;;19.40;59.90;;;;;;4992897;28;20073;-78
2022/03/29 00:31:11;;;;;;;14.38;9.18;;;19.40;59.90;;;;;;4992121;28;20030;-77
2022/03/29 00:33:37;;;;;;;13.40;8.13;;;19.30;59.70;;;;;;4974799;28;20415;-80
2022/03/29 00:36:03;;;;;;;13.90;8.18;;;19.30;59.80;;;;;;4992425;28;20029;-84
2022/03/29 00:38:29;;;;;;;14.70;8.63;;;19.30;59.70;;;;;;4974802;28;20030;-83
2022/03/29 00:40:55;;;;;;;16.15;9.48;;;19.30;59.70;;;;;;4992086;28;20046;-80
2022/03/29 00:43:21;;;;;;;15.88;9.70;;;19.30;59.70;;;;;;4992224;28;20367;-81
2022/03/29 00:45:46;;;;;;;13.70;8.30;;;19.30;59.70;;;;;;4992256;28;20223;-77
2022/03/29 00:48:13;;;;;;;14.77;9.05;;;19.20;59.70;;;;;;4992530;28;20060;-79
2022/03/29 00:50:40;;;;;;;16.42;9.60;;;19.20;59.70;;;;;;4991822;28;20057;-78
2022/03/29 00:53:08;;;;;;;15.10;10.07;;;19.20;59.80;;;;;;4991525;28;20118;-80
2022/03/29 00:55:34;;;;;;;16.42;9.50;;;19.20;59.80;;;;;;4991805;28;20061;-80
2022/03/29 00:58:06;;;;;;;15.68;9.60;;;19.20;59.80;;;;;;4992253;28;20501;-78
2022/03/29 01:00:33;;;;;;;16.13;9.88;;;19.20;59.90;;;;;;4973899;28;20041;-79
2022/03/29 01:03:02;;;;;;;16.13;9.77;;;19.20;59.80;;;;;;4974545;28;20109;-77
2022/03/29 01:05:28;;;;;;;15.73;9.77;;;19.20;59.80;;;;;;4991496;28;20471;-78
2022/03/29 01:07:55;;;;;;;17.90;10.02;;;19.20;59.90;;;;;;4991939;28;20026;-78
2022/03/29 01:10:21;;;;;;;15.30;9.70;;;19.10;60.00;;;;;;4990953;28;20108;-77
2022/03/29 01:12:47;;;;;;;17.10;10.57;;;19.10;60.00;;;;;;4990837;28;20089;-77
2022/03/29 01:15:13;;;;;;;16.05;9.65;;;19.10;60.00;;;;;;4991542;28;20120;-77
2022/03/29 01:17:41;;;;;;;16.02;10.18;;;19.10;60.00;;;;;;4991583;28;20037;-78
2022/03/29 01:20:14;;;;;;;15.15;8.98;;;19.10;60.00;;;;;;4991725;28;20022;-79
2022/03/29 01:22:42;;;;;;;15.38;10.45;;;19.10;60.00;;;;;;4991583;28;20040;-77
2022/03/29 01:25:09;;;;;;;15.68;9.95;;;19.00;60.00;;;;;;4991691;28;20490;-77
2022/03/29 01:27:35;;;;;;;14.68;9.70;;;19.00;60.10;;;;;;4991485;28;20034;-79
2022/03/29 01:30:02;;;;;;;17.23;10.57;;;19.10;60.00;;;;;;4991612;28;20414;-76
2022/03/29 01:32:29;;;;;;;17.88;10.25;;;19.10;59.90;;;;;;4973724;28;20398;-78
2022/03/29 01:34:56;;;;;;;15.85;10.02;;;19.00;59.90;;;;;;4991784;28;20033;-79
2022/03/29 01:37:22;;;;;;;16.42;10.65;;;19.00;59.80;;;;;;4991069;28;20029;-78
2022/03/29 01:39:48;;;;;;;16.10;10.93;;;19.00;59.80;;;;;;4991402;28;20030;-77
2022/03/29 01:42:13;;;;;;;16.33;10.50;;;19.00;59.80;;;;;;4991823;28;20046;-78
2022/03/29 01:44:39;;;;;;;14.98;10.10;;;19.00;59.90;;;;;;4991393;28;20019;-78
2022/03/29 01:47:06;;;;;;;17.45;11.25;;;19.00;59.90;;;;;;4974146;28;20027;-79
2022/03/29 01:49:33;;;;;;;16.98;11.00;;;19.00;60.00;;;;;;4991407;28;20073;-79
2022/03/29 01:51:59;;;;;;;17.50;11.57;;;18.90;60.00;;;;;;4991419;28;20027;-78
2022/03/29 01:54:25;;;;;;;17.80;11.60;;;19.00;60.00;;;;;;4991196;28;20494;-78
2022/03/29 01:56:51;;;;;;;18.65;12.25;;;19.00;60.10;;;;;;4991514;28;20022;-77
2022/03/29 01:59:17;;;;;;;17.02;12.00;;;18.90;60.50;;;;;;4974067;28;20030;-76
2022/03/29 02:01:45;;;;;;;17.55;11.55;;;19.00;60.90;;;;;;4991175;28;20042;-77
2022/03/29 02:04:10;;;;;;;15.57;11.30;;;19.00;62.80;;;;;;4991419;28;20104;-78
2022/03/29 02:06:36;;;;;;;17.75;11.18;;;19.00;63.50;;;;;;4993482;28;20509;-78
2022/03/29 02:09:03;;;;;;;19.15;12.02;;;19.00;64.10;;;;;;4995118;28;20034;-78
2022/03/29 02:11:29;;;;;;;19.02;11.80;;;19.00;64.20;;;;;;4994887;28;20097;-78
2022/03/29 02:13:55;;;;;;;18.42;12.32;;;19.00;64.40;;;;;;4995165;28;20109;-76
2022/03/29 02:16:21;;;;;;;18.77;11.27;;;19.00;64.30;;;;;;4994312;28;20105;-76
2022/03/29 02:18:47;;;;;;;16.25;11.10;;;19.00;64.30;;;;;;4995042;28;20129;-77
2022/03/29 02:21:19;;;;;;;18.80;12.82;;;19.00;64.30;;;;;;4994816;28;20050;-77
2022/03/29 02:23:44;;;;;;;18.40;11.77;;;19.00;63.90;;;;;;4995150;28;20097;-77
2022/03/29 02:26:10;;;;;;;17.77;11.93;;;19.00;63.80;;;;;;4994851;28;20101;-78
2022/03/29 02:28:36;;;;;;;17.77;11.85;;;18.90;63.80;;;;;;4994585;28;20427;-79
2022/03/29 02:31:02;;;;;;;19.15;12.20;;;18.90;63.60;;;;;;4994838;28;20049;-78
2022/03/29 02:33:29;;;;;;;17.88;11.05;;;18.90;63.50;;;;;;4994484;28;20133;-79
2022/03/29 02:35:54;;;;;;;18.08;12.40;;;18.90;63.60;;;;;;4994281;28;20101;-79
2022/03/29 02:38:20;;;;;;;17.45;11.60;;;18.90;63.50;;;;;;4994449;28;20105;-78
2022/03/29 02:40:46;;;;;;;18.08;12.30;;;18.90;63.60;;;;;;4977349;28;20125;-77
2022/03/29 02:43:12;;;;;;;20.70;13.90;;;18.90;63.50;;;;;;4977341;28;20467;-76
2022/03/29 02:45:38;;;;;;;17.55;12.48;;;18.90;63.40;;;;;;4994284;28;20029;-78
2022/03/29 02:48:04;;;;;;;18.15;12.18;;;18.90;63.40;;;;;;4977044;28;20023;-79
2022/03/29 02:50:30;;;;;;;19.60;12.90;;;18.90;63.30;;;;;;4994323;28;20031;-80
2022/03/29 02:53:01;;;;;;;21.45;13.38;;;18.90;63.10;;;;;;4974681;28;20085;-81
2022/03/29 02:55:35;;;;;;;18.50;11.80;;;18.80;63.00;;;;;;4974793;28;20046;-81
2022/03/29 02:58:01;;;;;;;19.83;12.73;;;18.90;62.90;;;;;;4981417;28;20429;-78
2022/03/29 03:00:27;;;;;;;19.75;12.70;;;18.80;62.80;;;;;;4993740;28;20027;-81
2022/03/29 03:02:54;;;;;;;17.15;11.30;;;18.80;62.70;;;;;;4994419;28;20030;-80
2022/03/29 03:05:21;;;;;;;19.48;12.32;;;18.80;62.70;;;;;;4976634;28;20022;-81
2022/03/29 03:07:47;;;;;;;17.88;12.00;;;18.80;62.50;;;;;;4994660;28;20053;-82
2022/03/29 03:10:14;;;;;;;20.45;12.93;;;18.80;62.50;;;;;;4994619;28;20470;-79
2022/03/29 03:12:42;;;;;;;21.10;12.82;;;18.80;62.40;;;;;;4993931;28;20056;-82
2022/03/29 03:15:09;;;;;;;19.90;13.13;;;18.80;62.30;;;;;;4993359;28;20034;-79
2022/03/29 03:17:35;;;;;;;18.42;12.10;;;18.80;62.20;;;;;;4993460;28;20030;-81
2022/03/29 03:20:01;;;;;;;19.55;12.93;;;18.80;62.10;;;;;;4976440;28;20027;-79
2022/03/29 03:22:27;;;;;;;20.35;12.57;;;18.70;62.00;;;;;;4993509;28;20490;-82
2022/03/29 03:24:53;;;;;;;16.67;12.25;;;18.70;62.00;;;;;;4993867;28;20381;-78
2022/03/29 03:27:19;;;;;;;19.17;12.93;;;18.70;61.90;;;;;;4993521;28;20101;-79
2022/03/29 03:29:45;;;;;;;17.67;11.88;;;18.70;61.90;;;;;;4993718;28;20022;-80
2022/03/29 03:32:12;;;;;;;21.23;13.68;;;18.70;61.90;;;;;;4993708;28;20018;-78
2022/03/29 03:34:38;;;;;;;19.10;12.60;;;18.70;61.90;;;;;;4975917;28;20038;-77
2022/03/29 03:37:04;;;;;;;18.85;12.52;;;18.70;61.80;;;;;;4993693;28;20029;-78
2022/03/29 03:39:35;;;;;;;20.02;13.07;;;18.70;61.80;;;;;;4993225;28;20033;-79
2022/03/29 03:42:01;;;;;;;19.60;12.32;;;18.70;61.80;;;;;;4993374;28;20034;-78
2022/03/29 03:44:27;;;;;;;19.33;12.65;;;18.70;61.70;;;;;;4975314;28;20098;-79
2022/03/29 03:46:53;;;;;;;17.30;11.93;;;18.60;61.60;;;;;;4975921;28;20026;-79
2022/03/29 03:49:19;;;;;;;19.45;13.13;;;18.70;61.60;;;;;;4975665;28;20479;-80
2022/03/29 03:51:44;;;;;;;17.80;12.18;;;18.60;61.50;;;;;;4993438;28;20045;-80
2022/03/29 03:54:10;;;;;;;20.77;13.00;;;18.60;61.40;;;;;;4993291;28;20390;-79
2022/03/29 03:56:36;;;;;;;19.67;12.20;;;18.60;61.40;;;;;;4992954;28;20041;-78
2022/03/29 03:59:02;;;;;;;19.08;12.98;;;18.60;61.30;;;;;;4992722;28;20021;-79
2022/03/29 04:01:31;;;;;;;20.67;12.52;;;18.60;61.20;;;;;;4992132;28;20038;-77
2022/03/29 04:03:56;;;;;;;17.65;12.55;;;18.60;61.10;;;;;;4992848;28;20033;-79
2022/03/29 04:06:22;;;;;;;18.65;13.05;;;18.60;61.10;;;;;;4992328;28;20026;-77
2022/03/29 04:08:48;;;;;;;19.25;12.48;;;18.60;61.20;;;;;;4992910;28;20076;-81
2022/03/29 04:11:13;;;;;;;19.70;12.75;;;18.60;61.20;;;;;;4993251;28;20097;-80
2022/03/29 04:13:39;;;;;;;18.10;12.18;;;18.60;61.20;;;;;;4992590;28;20029;-80
2022/03/29 04:16:05;;;;;;;21.02;14.63;;;18.50;61.10;;;;;;4992815;28;20026;-79
2022/03/29 04:18:30;;;;;;;17.40;12.55;;;18.50;61.00;;;;;;4992348;28;20459;-79
2022/03/29 04:20:57;;;;;;;17.77;12.82;;;18.50;61.00;;;;;;4992755;28;20042;-77
2022/03/29 04:23:23;;;;;;;20.80;12.13;;;18.50;61.00;;;;;;4975140;28;20049;-77
2022/03/29 04:25:49;;;;;;;18.67;12.85;;;18.50;60.90;;;;;;4992704;28;20459;-79
2022/03/29 04:28:14;;;;;;;20.05;12.73;;;18.50;60.90;;;;;;4992342;28;20026;-78
2022/03/29 04:30:40;;;;;;;18.50;12.95;;;18.50;60.80;;;;;;4991944;28;20026;-77
2022/03/29 04:33:06;;;;;;;19.75;13.48;;;18.40;60.70;;;;;;4992441;28;20018;-77
2022/03/29 04:35:32;;;;;;;21.60;14.18;;;18.50;60.70;;;;;;4992187;28;20109;-77
2022/03/29 04:37:58;;;;;;;18.75;12.02;;;18.40;60.60;;;;;;4992346;28;20031;-77
2022/03/29 04:40:23;;;;;;;19.95;13.02;;;18.40;60.60;;;;;;4992231;28;20386;-80
2022/03/29 04:42:51;;;;;;;19.27;11.68;;;18.40;60.50;;;;;;4992408;28;20510;-78
2022/03/29 04:45:19;;;;;;;19.52;12.63;;;18.40;60.50;;;;;;4992225;28;20022;-77
2022/03/29 04:47:46;;;;;;;19.42;13.38;;;18.40;60.50;;;;;;4992801;28;20041;-79
2022/03/29 04:50:14;;;;;;;16.70;11.98;;;18.40;61.10;;;;;;4992474;28;20025;-80
2022/03/29 04:52:44;;;;;;;18.58;12.00;;;18.40;60.40;;;;;;4991961;28;20022;-78
2022/03/29 04:55:10;;;;;;;17.55;12.90;;;18.40;60.40;;;;;;4992159;28;20026;-77
2022/03/29 04:57:36;;;;;;;19.40;12.25;;;18.40;60.40;;;;;;4991847;28;20600;-77
2022/03/29 05:00:04;;;;;;;21.20;13.93;;;18.40;60.50;;;;;;4991362;28;20545;-77
2022/03/29 05:02:31;;;;;;;18.35;13.65;;;18.30;60.40;;;;;;4973068;28;20034;-76
2022/03/29 05:04:57;;;;;;;19.45;12.82;;;18.30;60.30;;;;;;4992051;28;20476;-77
2022/03/29 05:07:23;;;;;;;19.00;12.93;;;18.30;60.30;;;;;;4973255;28;20033;-79
2022/03/29 05:09:49;;;;;;;17.92;12.35;;;18.30;60.40;;;;;;4991773;28;20022;-79
2022/03/29 05:12:16;;;;;;;19.35;13.13;;;18.30;60.30;;;;;;4974675;28;20018;-78
2022/03/29 05:14:43;;;;;;;19.58;12.95;;;18.30;60.30;;;;;;4972963;28;20447;-80
2022/03/29 05:17:08;;;;;;;17.98;12.45;;;18.30;60.30;;;;;;4972424;28;20102;-78
2022/03/29 05:19:34;;;;;;;18.10;12.80;;;18.30;60.30;;;;;;4972256;28;20062;-79
2022/03/29 05:21:59;;;;;;;17.02;11.63;;;18.20;60.20;;;;;;4972474;28;20035;-79
2022/03/29 05:24:25;;;;;;;18.70;11.73;;;18.30;60.20;;;;;;4972270;28;20364;-79
2022/03/29 05:26:51;;;;;;;23.75;12.52;;;18.30;60.20;;;;;;4972488;28;20034;-80
2022/03/29 05:29:18;;;;;;;18.60;12.85;;;18.30;60.10;;;;;;4972575;28;20027;-80
2022/03/29 05:31:44;;;;;;;20.23;13.73;;;18.20;60.10;;;;;;4982597;28;20562;-78
2022/03/29 05:34:10;;;;;;;20.80;14.07;;;18.20;60.10;;;;;;4990462;28;20106;-79
2022/03/29 05:36:35;;;;;;;17.90;11.90;;;18.20;60.10;;;;;;4991191;28;20117;-79
2022/03/29 05:39:03;;;;;;;19.20;12.65;;;18.20;60.20;;;;;;4991887;28;20054;-80
2022/03/29 05:41:29;;;;;;;17.85;12.77;;;18.20;60.20;;;;;;4995254;28;20050;-79
2022/03/29 05:43:55;;;;;;;16.95;11.80;;;18.20;60.20;;;;;;4995693;28;20038;-78
2022/03/29 05:49:05;;;;;;;20.02;13.70;;;18.10;60.10;;;;;;4987648;28;20034;-77
2022/03/29 05:51:31;;;;;;;15.88;11.43;;;18.20;60.10;;;;;;4977140;28;20492;-79
2022/03/29 05:53:58;;;;;;;17.38;11.75;;;18.10;60.00;;;;;;4995606;28;20045;-82
2022/03/29 05:56:24;;;;;;;19.20;12.80;;;18.20;60.40;;;;;;4991279;28;20015;-83
2022/03/29 05:58:50;;;;;;;18.75;12.57;;;18.20;60.60;;;;;;4996037;28;20086;-80
2022/03/29 06:01:16;;;;;;;22.50;15.50;;;18.20;60.90;;;;;;4995642;28;20122;-81
2022/03/29 06:03:42;;;;;;;23.10;14.25;;;18.20;61.00;;;;;;4995545;28;20030;-83
2022/03/29 06:06:08;;;;;;;26.30;19.70;;;18.20;61.90;;;;;;4995681;28;20142;-81
2022/03/29 06:08:35;;;;;;;559.83;269.83;;;18.20;62.50;;;;;;4970938;28;20410;-81
2022/03/29 06:11:01;;;;;;;508.58;227.18;;;18.20;62.00;;;;;;4987437;28;20014;-81
2022/03/29 06:13:27;;;;;;;246.93;109.28;;;18.20;62.00;;;;;;4992637;28;20521;-78
2022/03/29 06:15:53;;;;;;;219.73;95.72;;;18.20;62.00;;;;;;4975930;28;20026;-78
2022/03/29 06:18:22;;;;;;;237.00;102.47;;;18.20;62.10;;;;;;4975480;28;20027;-79
2022/03/29 06:20:49;;;;;;;225.77;98.43;;;18.20;62.00;;;;;;4975683;28;20502;-80
2022/03/29 06:23:14;;;;;;;210.05;92.13;;;18.20;61.80;;;;;;4975743;28;20031;-79
2022/03/29 06:25:40;;;;;;;204.10;88.28;;;18.20;62.00;;;;;;4989129;28;20025;-78
2022/03/29 06:28:06;;;;;;;195.15;86.32;;;18.20;61.60;;;;;;4994807;28;20030;-79
2022/03/29 06:30:32;;;;;;;195.73;84.72;;;18.20;61.50;;;;;;4976964;28;20364;-79
2022/03/29 06:32:59;;;;;;;185.15;81.43;;;18.20;61.50;;;;;;4994685;28;20032;-80
2022/03/29 06:35:26;;;;;;;178.20;80.50;;;18.20;61.30;;;;;;4976879;28;20437;-77
2022/03/29 06:37:56;;;;;;;167.10;75.85;;;18.20;61.20;;;;;;4994505;28;20037;-78
2022/03/29 06:40:23;;;;;;;153.02;69.68;;;18.20;61.10;;;;;;4992245;28;20470;-78
2022/03/29 06:42:52;;;;;;;141.73;68.88;;;18.20;61.10;;;;;;4993195;28;20038;-77
2022/03/29 06:45:18;;;;;;;140.25;65.38;;;18.20;61.00;;;;;;4994267;28;20409;-77
2022/03/29 06:47:44;;;;;;;144.45;65.53;;;18.20;61.00;;;;;;4994672;28;20033;-77
2022/03/29 06:50:11;;;;;;;129.52;62.00;;;18.20;60.90;;;;;;4992853;28;20018;-80
2022/03/29 06:52:41;;;;;;;129.52;58.92;;;18.20;60.80;;;;;;4997652;28;20053;-80
2022/03/29 06:55:09;;;;;;;117.35;57.28;;;18.20;60.80;;;;;;4982646;28;20038;-78
2022/03/29 06:57:35;;;;;;;122.53;57.30;;;18.20;60.90;;;;;;4984975;28;20030;-80
2022/03/29 07:00:02;;;;;;;111.50;53.13;;;18.20;61.10;;;;;;4991956;28;20030;-82
2022/03/29 07:02:28;;;;;;;117.72;54.80;;;18.20;61.10;;;;;;4974870;28;20411;-81
2022/03/29 07:04:54;;;;;;;108.70;52.17;;;18.20;61.20;;;;;;4988952;28;20101;-80
2022/03/29 07:07:19;;;;;;;107.32;49.40;;;18.20;61.10;;;;;;4983370;28;20499;-82
2022/03/29 07:12:34;;;;;;;100.13;47.75;;;18.20;60.90;;;;;;4981608;28;20037;-81
2022/03/29 07:15:02;;;;;;;99.32;47.22;;;18.20;60.90;;;;;;4964911;28;20153;-81
2022/03/29 07:17:28;;;;;;;89.90;41.50;;;18.20;60.90;;;;;;4984927;28;20038;-85
2022/03/29 07:19:53;;;;;;;84.72;41.97;;;18.20;60.90;;;;;;4969076;28;20029;-81
2022/03/29 07:22:19;;;;;;;86.40;41.65;;;18.20;61.00;;;;;;4982253;28;20079;-81
2022/03/29 07:24:45;;;;;;;90.65;41.85;;;18.20;61.60;;;;;;4991132;28;20022;-81
2022/03/29 07:27:11;;;;;;;88.20;40.33;;;18.20;60.70;;;;;;4976189;28;20034;-81
2022/03/29 07:29:38;;;;;;;78.22;38.33;;;18.20;60.60;;;;;;4984919;28;20045;-80
2022/03/29 07:32:05;;;;;;;78.43;38.60;;;18.20;60.50;;;;;;4981343;28;20018;-78
2022/03/29 07:34:35;;;;;;;84.00;37.65;;;18.20;61.30;;;;;;4981730;28;20399;-80
2022/03/29 07:37:02;;;;;;;79.15;37.55;;;18.20;60.60;;;;;;4981316;28;20029;-80
2022/03/29 07:39:28;;;;;;;79.78;38.60;;;18.20;60.80;;;;;;4981287;28;20425;-81
2022/03/29 07:41:55;;;;;;;77.95;37.13;;;18.30;61.00;;;;;;4981958;28;20030;-80
2022/03/29 07:44:21;;;;;;;77.47;36.83;;;18.20;61.40;;;;;;4982919;28;20033;-78
2022/03/29 07:46:46;;;;;;;78.82;37.08;;;18.30;61.10;;;;;;4981521;28;20035;-79
2022/03/29 07:49:12;;;;;;;69.35;35.92;;;18.20;61.00;;;;;;4982422;28;20010;-80
2022/03/29 07:51:38;;;;;;;68.45;33.65;;;18.20;61.00;;;;;;4982432;28;20041;-80
2022/03/29 07:54:04;;;;;;;64.65;32.65;;;18.30;61.00;;;;;;4969275;28;20491;-78
2022/03/29 07:56:30;;;;;;;61.17;31.85;;;18.30;60.90;;;;;;4992994;28;20030;-78
2022/03/29 07:58:56;;;;;;;60.95;29.80;;;18.30;60.80;;;;;;4993266;28;20037;-79
2022/03/29 08:01:22;;;;;;;65.55;31.63;;;18.30;60.60;;;;;;4968660;28;20031;-80
2022/03/29 08:03:48;;;;;;;61.90;30.33;;;18.30;60.60;;;;;;4972632;28;20035;-79
2022/03/29 08:06:14;;;;;;;58.92;30.85;;;18.30;60.50;;;;;;4973921;28;20531;-80
2022/03/29 08:08:41;;;;;;;59.00;30.15;;;18.30;60.50;;;;;;4973406;28;20027;-79
2022/03/29 08:11:08;;;;;;;55.03;28.40;;;18.30;60.50;;;;;;4973656;28;20035;-79
2022/03/29 08:13:34;;;;;;;51.75;27.42;;;18.30;60.40;;;;;;4973166;28;20023;-79
2022/03/29 08:16:01;;;;;;;56.13;27.92;;;18.30;60.40;;;;;;4973467;28;20031;-79
2022/03/29 08:18:28;;;;;;;55.15;27.80;;;18.30;60.30;;;;;;4973103;28;20022;-79
2022/03/29 08:20:54;;;;;;;48.78;26.85;;;18.30;60.30;;;;;;4955904;28;20039;-79
2022/03/29 08:23:19;;;;;;;53.22;27.13;;;18.30;60.30;;;;;;4955838;28;20026;-79
2022/03/29 08:25:46;;;;;;;50.90;25.33;;;18.30;60.20;;;;;;4973601;28;20034;-79
2022/03/29 08:28:14;;;;;;;47.72;24.63;;;18.30;60.10;;;;;;4956112;28;20023;-79
2022/03/29 08:30:40;;;;;;;52.10;26.58;;;18.30;60.00;;;;;;4972936;28;20502;-79
2022/03/29 08:33:06;;;;;;;46.90;24.60;;;18.30;60.00;;;;;;4973115;28;20062;-79
2022/03/29 08:35:33;;;;;;;48.70;25.73;;;18.30;60.00;;;;;;4972964;28;20022;-80
2022/03/29 08:37:59;;;;;;;48.90;24.08;;;18.30;60.00;;;;;;4973150;28;20040;-79
2022/03/29 08:40:26;;;;;;;46.45;25.23;;;18.30;59.90;;;;;;4972804;28;20022;-79
2022/03/29 08:42:58;;;;;;;44.08;21.90;;;18.30;59.90;;;;;;4972899;28;20031;-79
2022/03/29 08:45:29;;;;;;;39.35;22.38;;;18.40;59.90;;;;;;4972813;28;20037;-79
2022/03/29 08:47:59;;;;;;;43.83;24.27;;;18.30;59.90;;;;;;4972999;28;20501;-79
2022/03/29 08:50:29;;;;;;;42.05;22.02;;;18.30;59.90;;;;;;4972687;28;20019;-79
2022/03/29 08:52:55;;;;;;;41.88;21.40;;;18.30;59.80;;;;;;4972673;28;20427;-79
2022/03/29 08:55:22;;;;;;;39.95;22.85;;;18.30;59.80;;;;;;4972521;28;20011;-79
2022/03/29 08:57:52;;;;;;;42.17;22.45;;;18.30;59.80;;;;;;4992277;28;20034;-79
2022/03/29 09:00:18;;;;;;;44.53;22.02;;;18.30;59.80;;;;;;4991528;28;20072;-79
2022/03/29 09:02:44;;;;;;;41.72;22.42;;;18.30;59.70;;;;;;4992386;28;20034;-78
2022/03/29 09:05:12;;;;;;;39.42;21.13;;;18.30;59.80;;;;;;4992011;28;20110;-79
2022/03/29 09:07:53;;;;;;;41.97;21.08;;;18.30;59.80;;;;;;4991727;28;20109;-79
2022/03/29 09:10:21;;;;;;;41.80;21.83;;;18.30;59.70;;;;;;4991780;28;20022;-79
2022/03/29 09:12:47;;;;;;;39.17;20.38;;;18.30;59.70;;;;;;4992029;28;20026;-78
2022/03/29 09:15:13;;;;;;;38.85;20.23;;;18.30;59.70;;;;;;4991948;28;20394;-79
2022/03/29 09:17:44;;;;;;;39.22;19.13;;;18.30;59.70;;;;;;4991678;28;20018;-79
2022/03/29 09:20:21;;;;;;;39.03;20.80;;;18.30;59.60;;;;;;4991473;28;20038;-79
2022/03/29 09:22:52;;;;;;;37.80;20.33;;;18.30;59.60;;;;;;4991824;28;20226;-79
2022/03/29 09:25:22;;;;;;;37.13;19.35;;;18.30;59.60;;;;;;4991564;28;20069;-78
2022/03/29 09:27:58;;;;;;;34.53;19.20;;;18.40;59.70;;;;;;4991784;28;20398;-79
2022/03/29 09:30:27;;;;;;;40.47;19.08;;;18.30;59.60;;;;;;4991547;28;20026;-78
2022/03/29 09:33:05;;;;;;;39.15;20.70;;;18.30;59.60;;;;;;4991609;28;20022;-79
2022/03/29 09:35:32;;;;;;;32.45;18.85;;;18.40;59.70;;;;;;4991676;28;20015;-78
2022/03/29 09:38:01;;;;;;;35.03;18.60;;;18.30;59.60;;;;;;4991722;28;20035;-79
2022/03/29 09:40:38;;;;;;;31.98;17.65;;;18.30;59.60;;;;;;4991438;28;20022;-79
2022/03/29 09:43:11;;;;;;;34.05;17.33;;;18.40;59.60;;;;;;4991512;28;20026;-79
2022/03/29 09:45:41;;;;;;;31.23;17.40;;;18.40;59.60;;;;;;4991453;28;20896;-79
2022/03/29 09:48:25;;;;;;;27.95;16.88;;;18.40;59.60;;;;;;4991620;28;20030;-79
2022/03/29 09:51:10;;;;;;;32.30;17.55;;;18.40;59.60;;;;;;4973856;28;20034;-79
2022/03/29 09:53:47;;;;;;;32.60;18.08;;;18.40;59.60;;;;;;4991264;28;20022;-79
2022/03/29 09:56:19;;;;;;;33.85;17.52;;;18.40;59.60;;;;;;4974140;28;20026;-79
2022/03/29 09:58:45;;;;;;;30.33;17.27;;;18.40;59.60;;;;;;4991838;28;20546;-79
2022/03/29 10:01:23;;;;;;;29.08;16.92;;;18.40;59.60;;;;;;4991422;28;20042;-79
2022/03/29 10:03:54;;;;;;;30.98;16.80;;;18.40;59.60;;;;;;4991520;28;20030;-79
2022/03/29 10:06:22;;;;;;;28.85;16.17;;;18.40;59.60;;;;;;4991281;28;20062;-79
2022/03/29 10:11:37;;;;;;;31.48;16.58;;;18.40;59.50;;;;;;4991426;28;20036;-79
2022/03/29 10:14:06;;;;;;;27.90;14.93;;;18.40;59.50;;;;;;4984434;28;20029;-79
2022/03/29 10:16:33;;;;;;;29.95;16.20;;;18.40;59.50;;;;;;4961723;28;20449;-79
2022/03/29 10:18:59;;;;;;;29.55;15.27;;;18.40;59.50;;;;;;4979715;28;20089;-79
2022/03/29 10:21:27;;;;;;;29.38;16.40;;;18.40;59.50;;;;;;4983883;28;20034;-78
2022/03/29 10:23:53;;;;;;;32.15;16.15;;;18.40;59.50;;;;;;4991431;28;20023;-79
2022/03/29 10:26:25;;;;;;;28.13;16.08;;;18.40;59.50;;;;;;4991253;28;20462;-79
2022/03/29 10:28:55;;;;;;;32.53;16.63;;;18.50;59.50;;;;;;4994482;28;20022;-78
2022/03/29 10:31:27;;;;;;;30.65;15.45;;;18.50;59.50;;;;;;4991352;28;20034;-81
2022/03/29 10:34:17;;;;;;;25.23;14.68;;;18.50;59.50;;;;;;4994891;28;20025;-78
2022/03/29 10:37:04;;;;;;;26.20;14.73;;;18.50;59.60;;;;;;4994919;28;20022;-78
2022/03/29 10:39:45;;;;;;;27.13;14.52;;;18.50;59.50;;;;;;4994437;28;20027;-79
2022/03/29 10:42:24;;;;;;;25.00;13.88;;;18.50;59.60;;;;;;4994659;28;20057;-78
2022/03/29 10:45:09;;;;;;;27.70;14.38;;;18.60;59.40;;;;;;4988643;28;20027;-79
2022/03/29 10:47:34;;;;;;;21.77;13.27;;;18.70;59.40;;;;;;4966494;28;20470;-79
2022/03/29 10:50:02;;;;;;;20.88;11.52;;;18.70;59.60;;;;;;4964127;28;20022;-81
2022/03/29 10:52:29;;;;;;;24.67;12.68;;;18.80;59.70;;;;;;4982951;28;20521;-78
2022/03/29 10:55:13;;;;;;;21.20;12.05;;;18.90;59.60;;;;;;4982015;28;20391;-78
2022/03/29 10:57:39;;;;;;;19.88;11.50;;;19.00;59.60;;;;;;4982037;28;20546;-79
2022/03/29 11:00:08;;;;;;;21.13;11.27;;;19.10;59.60;;;;;;4983056;28;20121;-80
2022/03/29 11:02:34;;;;;;;19.65;11.38;;;19.20;59.70;;;;;;4983541;28;20406;-77
2022/03/29 11:05:08;;;;;;;22.40;12.07;;;19.30;59.40;;;;;;4982216;28;20471;-78
2022/03/29 11:07:39;;;;;;;19.83;10.65;;;19.40;59.10;;;;;;4981519;28;20030;-78
2022/03/29 11:10:10;;;;;;;19.60;11.07;;;19.50;58.80;;;;;;4982906;28;20026;-76
2022/03/29 11:12:40;;;;;;;23.27;10.70;;;19.50;58.60;;;;;;4966128;28;20368;-78
2022/03/29 11:15:24;;;;;;;19.70;10.93;;;19.60;58.50;;;;;;4982809;28;20110;-78
2022/03/29 11:17:54;;;;;;;19.90;11.63;;;19.70;58.30;;;;;;4983254;28;20094;-80
2022/03/29 11:20:39;;;;;;;21.50;11.85;;;19.70;58.10;;;;;;4961275;28;20034;-80
2022/03/29 11:23:06;;;;;;;23.92;11.35;;;19.80;58.10;;;;;;4977256;28;20118;-78
2022/03/29 11:25:39;;;;;;;22.58;12.00;;;19.80;58.10;;;;;;4982726;28;20034;-78
2022/03/29 11:28:11;;;;;;;24.85;10.50;;;19.90;58.20;;;;;;4981926;28;20027;-82
2022/03/29 11:30:37;;;;;;;18.60;10.77;;;20.00;58.30;;;;;;4981755;28;20478;-81
2022/03/29 11:33:04;;;;;;;19.90;10.88;;;20.00;58.30;;;;;;4983706;28;20099;-79
2022/03/29 11:35:34;;;;;;;20.05;9.95;;;20.00;58.30;;;;;;4982222;28;20034;-79
2022/03/29 11:38:07;;;;;;;16.60;9.45;;;20.10;58.30;;;;;;4981533;28;20030;-82
2022/03/29 11:40:33;;;;;;;14.55;9.15;;;20.20;58.30;;;;;;4981912;28;20092;-79
2022/03/29 11:43:00;;;;;;;20.80;10.73;;;20.20;58.30;;;;;;4983454;28;20030;-81
2022/03/29 11:45:28;;;;;;;16.35;8.98;;;20.30;58.20;;;;;;4981665;28;20106;-80
2022/03/29 11:47:57;;;;;;;16.65;9.80;;;20.30;58.10;;;;;;4969789;28;20030;-82
2022/03/29 11:50:53;;;;;;;15.75;9.15;;;20.40;58.10;;;;;;4989874;28;20015;-79
2022/03/29 11:53:24;;;;;;;18.60;9.38;;;20.40;58.10;;;;;;4980561;28;20034;-80
2022/03/29 11:56:01;;;;;;;15.07;8.27;;;20.40;58.00;;;;;;4964074;28;20379;-83
2022/03/29 11:58:33;;;;;;;17.25;9.23;;;20.50;57.90;;;;;;4983884;28;20028;-83
2022/03/29 12:01:17;;;;;;;17.25;8.70;;;20.50;57.90;;;;;;4993234;28;20026;-81
2022/03/29 12:03:51;;;;;;;14.98;9.00;;;20.50;57.80;;;;;;4993653;28;20041;-82
2022/03/29 12:06:19;;;;;;;16.27;9.20;;;20.50;57.80;;;;;;4993192;28;20026;-79
2022/03/29 12:08:56;;;;;;;13.68;8.50;;;20.50;57.80;;;;;;4993358;28;20386;-83
2022/03/29 12:11:37;;;;;;;17.98;9.50;;;20.50;57.80;;;;;;4992967;28;20402;-81
2022/03/29 12:14:12;;;;;;;14.60;8.00;;;20.40;57.80;;;;;;4992961;28;20026;-82
2022/03/29 12:16:45;;;;;;;18.25;8.13;;;20.40;57.90;;;;;;4992738;28;20076;-83
2022/03/29 12:19:19;;;;;;;17.00;8.27;;;20.40;57.90;;;;;;4992823;28;20029;-82
2022/03/29 12:21:53;;;;;;;14.93;7.70;;;20.40;57.90;;;;;;4993212;28;20406;-80
2022/03/29 12:24:20;;;;;;;15.40;7.53;;;20.40;57.90;;;;;;4992565;28;20029;-80
2022/03/29 12:26:52;;;;;;;15.55;8.18;;;20.40;57.90;;;;;;4975362;28;20026;-79
2022/03/29 12:29:21;;;;;;;16.48;8.88;;;20.40;57.90;;;;;;4992576;28;20085;-79
2022/03/29 12:31:48;;;;;;;17.45;8.63;;;20.40;57.90;;;;;;4992933;28;20019;-79
2022/03/29 12:34:19;;;;;;;13.10;7.70;;;20.40;58.00;;;;;;4975865;28;20030;-79
2022/03/29 12:36:53;;;;;;;14.18;7.85;;;20.30;57.90;;;;;;4993349;28;20509;-79
2022/03/29 12:39:20;;;;;;;13.83;7.97;;;20.40;58.00;;;;;;4992261;28;20026;-80
2022/03/29 12:41:48;;;;;;;15.30;8.20;;;20.40;58.10;;;;;;4992621;28;20117;-78